createdAt,value
2017-08-03T00:00:02.934Z,18.08
2017-08-03T00:05:02.403Z,18.07
2017-08-03T00:10:02.658Z,18.07
2017-08-03T00:15:02.875Z,18.04
2017-08-03T00:20:02.478Z,18.02
2017-08-03T00:25:02.724Z,17.99
2017-08-03T00:30:02.923Z,17.96
2017-08-03T00:35:03.042Z,17.9
2017-08-03T00:40:02.242Z,17.85
2017-08-03T00:45:02.432Z,17.83
2017-08-03T00:50:03.004Z,17.79
2017-08-03T00:55:02.191Z,17.77
2017-08-03T01:00:02.406Z,17.75
2017-08-03T01:05:02.274Z,17.73
2017-08-03T01:10:02.500Z,17.72
2017-08-03T01:15:02.708Z,17.68
2017-08-03T01:20:02.301Z,17.65
2017-08-03T01:25:02.505Z,17.63
2017-08-03T01:30:02.730Z,17.6
2017-08-03T01:35:02.468Z,17.59
2017-08-03T01:40:02.698Z,17.55
2017-08-03T01:45:02.904Z,17.52
2017-08-03T01:50:02.527Z,17.51
2017-08-03T01:55:02.765Z,17.5
2017-08-03T02:00:02.951Z,17.49
2017-08-03T02:05:03.080Z,17.48
2017-08-03T02:10:02.321Z,17.47
2017-08-03T02:15:02.492Z,17.45
2017-08-03T02:20:02.932Z,17.47
2017-08-03T02:25:02.136Z,17.46
2017-08-03T02:30:02.362Z,17.46
2017-08-03T02:35:02.314Z,17.46
2017-08-03T02:40:02.539Z,17.45
2017-08-03T02:45:02.717Z,17.45
2017-08-03T02:50:02.495Z,17.45
2017-08-03T02:55:02.712Z,17.44
2017-08-03T03:00:02.909Z,17.43
2017-08-03T03:05:02.783Z,17.43
2017-08-03T03:10:03.001Z,17.4
2017-08-03T03:15:02.173Z,17.39
2017-08-03T03:20:02.788Z,17.38
2017-08-03T03:25:03.044Z,17.38
2017-08-03T03:30:02.271Z,17.37
2017-08-03T03:35:02.693Z,17.36
2017-08-03T03:40:02.931Z,17.35
2017-08-03T03:45:03.088Z,17.33
2017-08-03T03:50:02.707Z,17.3
2017-08-03T03:55:02.912Z,17.29
2017-08-03T04:00:03.112Z,17.26
2017-08-03T04:05:02.639Z,17.25
2017-08-03T04:10:02.830Z,17.25
2017-08-03T04:15:03.214Z,17.29
2017-08-03T04:20:02.784Z,17.26
2017-08-03T04:25:03.086Z,17.29
2017-08-03T04:30:02.291Z,17.26
2017-08-03T04:35:02.394Z,17.25
2017-08-03T04:40:02.616Z,17.28
2017-08-03T04:45:03.343Z,17.26
2017-08-03T04:50:02.671Z,17.29
2017-08-03T04:55:03.191Z,17.31
2017-08-03T05:00:02.684Z,17.33
2017-08-03T05:05:02.587Z,17.38
2017-08-03T05:10:03.088Z,17.41
2017-08-03T05:15:02.601Z,17.43
2017-08-03T05:20:03.241Z,17.44
2017-08-03T05:25:02.769Z,17.45
2017-08-03T05:30:08.240Z,17.46
2017-08-03T05:35:02.770Z,17.43
2017-08-03T05:40:03.259Z,17.45
2017-08-03T05:45:02.733Z,17.45
2017-08-03T05:50:03.276Z,17.49
2017-08-03T05:55:02.778Z,17.53
2017-08-03T06:00:03.254Z,17.55
2017-08-03T06:05:03.327Z,17.59
2017-08-03T06:10:02.861Z,17.63
2017-08-03T06:15:03.417Z,17.68
2017-08-03T06:20:03.078Z,17.78
2017-08-03T06:25:02.570Z,17.88
2017-08-03T06:30:03.059Z,17.92
2017-08-03T06:35:02.458Z,18.09
2017-08-03T06:40:02.988Z,18.42
2017-08-03T06:45:02.527Z,18.58
2017-08-03T06:50:02.778Z,18.56
2017-08-03T06:55:03.300Z,18.53
2017-08-03T07:00:02.774Z,18.53
2017-08-03T07:05:03.271Z,18.54
2017-08-03T07:10:02.774Z,18.53
2017-08-03T07:15:03.295Z,18.49
2017-08-03T07:20:02.941Z,18.47
2017-08-03T07:25:02.429Z,18.47
2017-08-03T07:30:02.936Z,18.47
2017-08-03T07:35:02.424Z,18.53
2017-08-03T07:40:02.964Z,18.62
2017-08-03T07:45:02.425Z,18.77
2017-08-03T07:50:02.444Z,18.98
2017-08-03T07:55:02.934Z,19.15
2017-08-03T08:00:03.400Z,19.23
2017-08-03T08:05:03.143Z,19.35
2017-08-03T08:10:02.624Z,19.59
2017-08-03T08:15:03.160Z,19.84
2017-08-03T08:20:03.072Z,19.87
2017-08-03T08:25:02.578Z,19.83
2017-08-03T08:30:03.106Z,19.83
2017-08-03T08:35:02.914Z,19.89
2017-08-03T08:40:03.394Z,20.09
2017-08-03T08:45:02.909Z,20.34
2017-08-03T08:50:02.910Z,20.64
2017-08-03T08:55:03.428Z,21.2
2017-08-03T09:00:02.940Z,21.2
2017-08-03T09:05:02.497Z,21.15
2017-08-03T09:10:03.024Z,21.03
2017-08-03T09:15:02.557Z,20.9
2017-08-03T09:20:02.826Z,20.85
2017-08-03T09:25:03.317Z,20.85
2017-08-03T09:30:07.832Z,20.91
2017-08-03T09:35:03.374Z,20.92
2017-08-03T09:40:02.879Z,21.03
2017-08-03T09:45:03.381Z,21.38
2017-08-03T09:50:02.589Z,21.6
2017-08-03T09:55:03.107Z,21.88
2017-08-03T10:00:02.601Z,22.13
2017-08-03T10:05:02.837Z,22.26
2017-08-03T10:10:03.366Z,22.25
2017-08-03T10:15:02.902Z,22.1
2017-08-03T10:20:03.063Z,21.98
2017-08-03T10:25:02.578Z,21.95
2017-08-03T10:30:03.147Z,21.94
2017-08-03T10:35:02.693Z,21.88
2017-08-03T10:40:03.177Z,21.82
2017-08-03T10:45:02.719Z,21.81
2017-08-03T10:50:03.208Z,21.77
2017-08-03T10:55:02.706Z,21.76
2017-08-03T11:00:03.230Z,21.72
2017-08-03T11:05:03.236Z,21.7
2017-08-03T11:10:03.753Z,21.79
2017-08-03T11:15:03.280Z,21.94
2017-08-03T11:20:02.863Z,22.34
2017-08-03T11:25:03.365Z,22.91
2017-08-03T11:30:02.877Z,23.35
2017-08-03T11:35:02.439Z,23.6
2017-08-03T11:40:02.935Z,23.59
2017-08-03T11:45:03.427Z,23.65
2017-08-03T11:50:02.967Z,24
2017-08-03T11:55:02.486Z,24.53
2017-08-03T12:00:03.009Z,24.93
2017-08-03T12:05:02.686Z,25.23
2017-08-03T12:10:08.218Z,25.47
2017-08-03T12:15:02.671Z,25.63
2017-08-03T12:20:02.838Z,25.67
2017-08-03T12:25:03.370Z,25.58
2017-08-03T12:30:02.870Z,25.53
2017-08-03T12:35:03.351Z,25.12
2017-08-03T12:40:02.844Z,24.74
2017-08-03T12:45:03.383Z,24.46
2017-08-03T12:50:03.347Z,24.21
2017-08-03T12:55:02.847Z,24.01
2017-08-03T13:00:03.321Z,23.98
2017-08-03T13:05:02.993Z,23.86
2017-08-03T13:10:02.461Z,24.16
2017-08-03T13:15:02.930Z,24.3
2017-08-03T13:20:02.616Z,24.53
2017-08-03T13:25:03.138Z,24.91
2017-08-03T13:30:02.627Z,24.9
2017-08-03T13:35:02.622Z,25.09
2017-08-03T13:40:03.173Z,25.17
2017-08-03T13:45:02.676Z,25.2
2017-08-03T13:50:03.175Z,25.35
2017-08-03T13:55:02.679Z,25.5
2017-08-03T14:00:03.193Z,25.43
2017-08-03T14:05:02.828Z,25.33
2017-08-03T14:10:03.333Z,25.14
2017-08-03T14:15:02.846Z,24.86
2017-08-03T14:20:02.942Z,24.59
2017-08-03T14:25:03.438Z,24.72
2017-08-03T14:30:02.946Z,24.95
2017-08-03T14:35:02.665Z,25.14
2017-08-03T14:40:03.201Z,24.94
2017-08-03T14:45:02.682Z,24.6
2017-08-03T14:50:02.613Z,24.47
2017-08-03T14:55:03.077Z,24.51
2017-08-03T15:00:07.612Z,24.66
2017-08-03T15:05:03.123Z,24.74
2017-08-03T15:10:02.644Z,24.9
2017-08-03T15:15:03.156Z,24.98
2017-08-03T15:20:02.803Z,25.01
2017-08-03T15:25:03.301Z,25.08
2017-08-03T15:30:02.801Z,25.15
2017-08-03T15:35:03.096Z,25.1
2017-08-03T15:40:02.613Z,25.1
2017-08-03T15:45:03.080Z,25.15
2017-08-03T15:50:02.799Z,25.17
2017-08-03T15:55:03.306Z,25.14
2017-08-03T16:00:02.818Z,25.04
2017-08-03T16:05:02.514Z,24.92
2017-08-03T16:10:03.067Z,24.79
2017-08-03T16:15:02.579Z,24.83
2017-08-03T16:20:02.595Z,24.8
2017-08-03T16:25:03.092Z,24.61
2017-08-03T16:30:02.571Z,24.41
2017-08-03T16:35:03.455Z,24.38
2017-08-03T16:40:03.002Z,24.29
2017-08-03T16:45:02.465Z,24.2
2017-08-03T16:50:03.336Z,23.98
2017-08-03T16:55:02.860Z,23.79
2017-08-03T17:00:03.313Z,23.7
2017-08-03T17:05:02.935Z,23.65
2017-08-03T17:10:03.438Z,23.69
2017-08-03T17:15:02.940Z,23.72
2017-08-03T17:20:02.579Z,23.66
2017-08-03T17:25:03.081Z,23.54
2017-08-03T17:30:02.608Z,23.42
2017-08-03T17:35:03.158Z,23.37
2017-08-03T17:40:02.706Z,23.29
2017-08-03T17:45:03.237Z,23.25
2017-08-03T17:50:02.747Z,23.18
2017-08-03T17:55:03.293Z,23.14
2017-08-03T18:00:02.775Z,23.06
2017-08-03T18:05:03.108Z,23.06
2017-08-03T18:10:02.644Z,23.05
2017-08-03T18:15:03.100Z,22.96
2017-08-03T18:20:02.768Z,22.8
2017-08-03T18:25:03.259Z,22.62
2017-08-03T18:30:02.722Z,22.46
2017-08-03T18:35:02.515Z,22.32
2017-08-03T18:40:03.027Z,22.19
2017-08-03T18:45:02.552Z,22.08
2017-08-03T18:50:03.191Z,21.95
2017-08-03T18:55:02.664Z,21.87
2017-08-03T19:00:03.126Z,21.78
2017-08-03T19:05:03.434Z,21.69
2017-08-03T19:10:02.931Z,21.55
2017-08-03T19:15:03.433Z,21.45
2017-08-03T19:20:03.120Z,21.35
2017-08-03T19:25:02.618Z,21.29
2017-08-03T19:30:03.083Z,21.17
2017-08-03T19:35:02.578Z,21.06
2017-08-03T19:40:03.059Z,20.98
2017-08-03T19:45:02.533Z,20.87
2017-08-03T19:50:03.032Z,20.78
2017-08-03T19:55:02.540Z,20.72
2017-08-03T20:00:03.010Z,20.66
2017-08-03T20:05:03.129Z,20.63
2017-08-03T20:10:02.663Z,20.64
2017-08-03T20:15:03.205Z,20.63
2017-08-03T20:20:02.892Z,20.57
2017-08-03T20:25:03.407Z,20.47
2017-08-03T20:30:02.885Z,20.34
2017-08-03T20:35:03.409Z,20.24
2017-08-03T20:40:02.940Z,20.16
2017-08-03T20:45:03.454Z,20.1
2017-08-03T20:50:03.071Z,20
2017-08-03T20:55:02.577Z,19.91
2017-08-03T21:00:03.134Z,19.85
2017-08-03T21:05:03.522Z,19.82
2017-08-03T21:10:03.051Z,19.77
2017-08-03T21:15:02.504Z,19.71
2017-08-03T21:20:03.312Z,19.6
2017-08-03T21:25:02.810Z,19.46
2017-08-03T21:30:03.272Z,19.32
2017-08-03T21:35:02.856Z,19.21
2017-08-03T21:40:03.384Z,19.14
2017-08-03T21:45:02.919Z,19.03
2017-08-03T21:50:03.132Z,19.03
2017-08-03T21:55:02.647Z,18.99
2017-08-03T22:00:03.277Z,18.97
2017-08-03T22:05:02.958Z,18.96
2017-08-03T22:10:03.425Z,18.89
2017-08-03T22:15:02.917Z,18.79
2017-08-03T22:20:03.012Z,18.8
2017-08-03T22:25:03.511Z,18.84
2017-08-03T22:30:03.027Z,18.82
2017-08-03T22:35:02.632Z,18.81
2017-08-03T22:40:03.193Z,18.78
2017-08-03T22:45:02.720Z,18.73
2017-08-03T22:50:02.939Z,18.71
2017-08-03T22:55:03.423Z,18.73
2017-08-03T23:00:02.937Z,18.71
2017-08-03T23:05:02.692Z,18.66
2017-08-03T23:10:03.138Z,18.61
2017-08-03T23:15:02.625Z,18.56
2017-08-03T23:20:02.763Z,18.54
2017-08-03T23:25:03.266Z,18.57
2017-08-03T23:30:02.772Z,18.58
2017-08-03T23:35:02.843Z,18.53
2017-08-03T23:40:03.374Z,18.48
2017-08-03T23:45:02.902Z,18.42
2017-08-03T23:50:02.874Z,18.38
2017-08-03T23:55:03.385Z,18.33
